sensor_id;sensor_type;location;lat;lon;timestamp;P1;durP1;ratioP1;P2;durP2;ratioP2
71902;SDS011;59778;50.310;18.780;2022-09-13T00:03:38;26.33;;;13.20;;
71902;SDS011;59778;50.310;18.780;2022-09-13T00:18:59;24.90;;;13.63;;
71902;SDS011;59778;50.310;18.780;2022-09-13T00:34:21;24.20;;;13.57;;
71902;SDS011;59778;50.310;18.780;2022-09-13T00:49:42;25.87;;;12.53;;
71902;SDS011;59778;50.310;18.780;2022-09-13T01:05:07;21.37;;;11.97;;
71902;SDS011;59778;50.310;18.780;2022-09-13T01:20:39;24.43;;;12.30;;
71902;SDS011;59778;50.310;18.780;2022-09-13T01:36:35;21.17;;;11.63;;
71902;SDS011;59778;50.310;18.780;2022-09-13T01:52:06;22.87;;;11.00;;
71902;SDS011;59778;50.310;18.780;2022-09-13T02:07:31;19.57;;;10.83;;
71902;SDS011;59778;50.310;18.780;2022-09-13T02:23:05;22.07;;;10.23;;
71902;SDS011;59778;50.310;18.780;2022-09-13T02:54:22;18.67;;;9.70;;
71902;SDS011;59778;50.310;18.780;2022-09-13T03:10:00;16.30;;;8.87;;
71902;SDS011;59778;50.310;18.780;2022-09-13T03:40:59;22.50;;;10.77;;
71902;SDS011;59778;50.310;18.780;2022-09-13T03:56:26;18.67;;;10.23;;
71902;SDS011;59778;50.310;18.780;2022-09-13T04:11:48;20.23;;;11.27;;
71902;SDS011;59778;50.310;18.780;2022-09-13T04:27:09;22.07;;;11.10;;
71902;SDS011;59778;50.310;18.780;2022-09-13T04:42:30;31.90;;;13.20;;
71902;SDS011;59778;50.310;18.780;2022-09-13T04:57:51;39.73;;;19.17;;
71902;SDS011;59778;50.310;18.780;2022-09-13T05:13:13;22.40;;;12.97;;
71902;SDS011;59778;50.310;18.780;2022-09-13T05:28:35;23.53;;;12.90;;
71902;SDS011;59778;50.310;18.780;2022-09-13T05:43:57;36.93;;;20.70;;
71902;SDS011;59778;50.310;18.780;2022-09-13T05:59:18;35.43;;;20.60;;
71902;SDS011;59778;50.310;18.780;2022-09-13T06:14:39;33.80;;;20.03;;
71902;SDS011;59778;50.310;18.780;2022-09-13T06:30:01;32.37;;;18.70;;
71902;SDS011;59778;50.310;18.780;2022-09-13T06:45:22;28.20;;;15.63;;
71902;SDS011;59778;50.310;18.780;2022-09-13T07:00:43;23.90;;;14.07;;
71902;SDS011;59778;50.310;18.780;2022-09-13T07:16:06;23.53;;;14.10;;
71902;SDS011;59778;50.310;18.780;2022-09-13T07:31:30;17.93;;;10.13;;
71902;SDS011;59778;50.310;18.780;2022-09-13T07:46:53;17.37;;;9.03;;
71902;SDS011;59778;50.310;18.780;2022-09-13T08:02:14;12.53;;;6.43;;
71902;SDS011;59778;50.310;18.780;2022-09-13T08:17:37;13.57;;;5.93;;
71902;SDS011;59778;50.310;18.780;2022-09-13T08:32:58;9.77;;;5.60;;
71902;SDS011;59778;50.310;18.780;2022-09-13T08:48:21;8.70;;;4.30;;
71902;SDS011;59778;50.310;18.780;2022-09-13T09:03:59;9.63;;;3.83;;
71902;SDS011;59778;50.310;18.780;2022-09-13T09:19:49;6.83;;;3.60;;
71902;SDS011;59778;50.310;18.780;2022-09-13T09:50:58;9.27;;;3.77;;
71902;SDS011;59778;50.310;18.780;2022-09-13T10:06:21;9.77;;;3.80;;
71902;SDS011;59778;50.310;18.780;2022-09-13T10:21:44;7.30;;;3.77;;
71902;SDS011;59778;50.310;18.780;2022-09-13T10:37:20;7.60;;;3.37;;
71902;SDS011;59778;50.310;18.780;2022-09-13T10:52:52;8.57;;;3.47;;
71902;SDS011;59778;50.310;18.780;2022-09-13T11:23:51;4.93;;;2.70;;
71902;SDS011;59778;50.310;18.780;2022-09-13T12:10:52;5.67;;;3.30;;
71902;SDS011;59778;50.310;18.780;2022-09-13T12:26:21;6.67;;;3.60;;
71902;SDS011;59778;50.310;18.780;2022-09-13T13:29:18;7.57;;;3.13;;
71902;SDS011;59778;50.310;18.780;2022-09-13T14:00:16;9.50;;;2.93;;
71902;SDS011;59778;50.310;18.780;2022-09-13T14:31:15;4.97;;;2.80;;
71902;SDS011;59778;50.310;18.780;2022-09-13T14:46:40;10.33;;;2.90;;
71902;SDS011;59778;50.310;18.780;2022-09-13T15:02:15;4.70;;;2.73;;
71902;SDS011;59778;50.310;18.780;2022-09-13T15:33:26;6.63;;;3.03;;
71902;SDS011;59778;50.310;18.780;2022-09-13T15:48:50;8.03;;;3.20;;
71902;SDS011;59778;50.310;18.780;2022-09-13T16:04:14;9.13;;;3.33;;
71902;SDS011;59778;50.310;18.780;2022-09-13T16:19:35;10.13;;;4.37;;
71902;SDS011;59778;50.310;18.780;2022-09-13T16:34:56;8.73;;;4.33;;
71902;SDS011;59778;50.310;18.780;2022-09-13T16:50:17;8.33;;;4.57;;
71902;SDS011;59778;50.310;18.780;2022-09-13T17:05:39;11.13;;;5.03;;
71902;SDS011;59778;50.310;18.780;2022-09-13T17:21:00;8.60;;;4.33;;
71902;SDS011;59778;50.310;18.780;2022-09-13T17:36:22;12.93;;;6.97;;
71902;SDS011;59778;50.310;18.780;2022-09-13T17:51:43;12.03;;;5.40;;
71902;SDS011;59778;50.310;18.780;2022-09-13T18:07:04;13.73;;;5.43;;
71902;SDS011;59778;50.310;18.780;2022-09-13T18:22:26;9.53;;;4.70;;
71902;SDS011;59778;50.310;18.780;2022-09-13T18:37:47;13.97;;;4.30;;
71902;SDS011;59778;50.310;18.780;2022-09-13T18:53:10;9.63;;;5.20;;
71902;SDS011;59778;50.310;18.780;2022-09-13T19:08:31;10.90;;;5.60;;
71902;SDS011;59778;50.310;18.780;2022-09-13T19:23:52;11.00;;;5.83;;
71902;SDS011;59778;50.310;18.780;2022-09-13T19:39:14;11.23;;;5.53;;
71902;SDS011;59778;50.310;18.780;2022-09-13T19:54:35;11.53;;;6.40;;
71902;SDS011;59778;50.310;18.780;2022-09-13T20:09:56;11.30;;;6.07;;
71902;SDS011;59778;50.310;18.780;2022-09-13T20:25:18;11.33;;;5.47;;
71902;SDS011;59778;50.310;18.780;2022-09-13T20:40:39;9.30;;;5.00;;
71902;SDS011;59778;50.310;18.780;2022-09-13T20:56:01;9.63;;;5.70;;
71902;SDS011;59778;50.310;18.780;2022-09-13T21:11:33;13.10;;;6.80;;
71902;SDS011;59778;50.310;18.780;2022-09-13T21:26:56;12.80;;;5.90;;
71902;SDS011;59778;50.310;18.780;2022-09-13T21:42:17;12.13;;;6.20;;
71902;SDS011;59778;50.310;18.780;2022-09-13T21:57:38;18.17;;;6.80;;
71902;SDS011;59778;50.310;18.780;2022-09-13T22:12:59;14.87;;;6.83;;
71902;SDS011;59778;50.310;18.780;2022-09-13T22:28:20;11.67;;;5.80;;
71902;SDS011;59778;50.310;18.780;2022-09-13T22:43:42;11.47;;;5.57;;
71902;SDS011;59778;50.310;18.780;2022-09-13T22:59:05;13.20;;;5.43;;
71902;SDS011;59778;50.310;18.780;2022-09-13T23:14:28;9.70;;;5.13;;
71902;SDS011;59778;50.310;18.780;2022-09-13T23:29:49;11.37;;;5.80;;
71902;SDS011;59778;50.310;18.780;2022-09-13T23:45:10;10.97;;;6.00;;
